LiveATC.Net - Listen to live air traffic control over the Internet! Contact for advertising information

ICAO: LTBA  IATA: IST   Airport: Ataturk Airport
City: Istanbul
Country: Turkey   Continent: Europe
LTBA METAR Weather: LTBA 100820Z 10008KT 040V160 9999 FEW028 20/10 Q1020 NOSIG
LTBA Flight Activity (FlightAware)
LTBA Del/Gnd/Twr/App
Feed Status: UP   Listeners: 36
Listen right in your browser - requires Flash (in browser, requires Flash)
Click here to listen with your own player (launches your MP3 player)
LTBA Del/Gnd/Twr/App Audio Archives
LTBA Approach120.500
LTBA Approach121.100
LTBA Delivery121.700
LTBA Ground121.800
LTBA Ground/Ramp121.900
LTBA Tower118.100
LTBA Tower121.800


Unauthorized use prohibited. See Terms of Service

Find LiveATC Audio Streams

Airport/ARTCC Code

(e.g., 124.400, 128.75)
Site-wide search

Browse LiveATC Feeds
LiveATC Coverage Map
Top 50 LiveATC Feeds
Bad Weather Areas

Offer a LiveATC Feed
Press Inquiries

LiveATC on iPhone
LiveATC on Android

Windows Phone
Windows 8/10

LiveATC Mobile
(Mobile browser)

ATC Audio Archives
Interesting Recordings

LiveATC Forums

Home Page
Make a Donation
LiveATC Bookstore

Terms of Use
Privacy Policy

ATC/Radar Sites
U.S. ARTCC Freqs
Canadian Air Freqs


FAA Airport Status
Nat'l Airspace Status
Arrival Demand Charts

Server Software By:

Please make a donation to help us keep growing!